Terminal Aerodrome Forecast
Issued by NWS Amarillo, TX

Home | Current Version | Previous Version | Text Only | Print | Product List | Glossary On
Versions: 1 2 3 4 5 6 7 8 9 10 11 12 13 14
000
FTUS44 KAMA 190500
TAFGUY
TAF
KGUY 190520Z 1906/2006 20006KT P6SM FEW050 SCT150
     FM191100 20007KT P6SM SCT015
     FM191600 18013KT P6SM SCT040 BKN110
     FM200200 18008KT P6SM SCT020 BKN080=

USA.gov is the U.S. government's official web portal to all federal, state and local government web resources and services.